Time;durP1;ratioP1;P1;durP2;ratioP2;P2;SDS_P1;SDS_P2;PMS_P1;PMS_P2;Temp;Humidity;BMP_temperature;BMP_pressure;BME280_temperature;BME280_humidity;BME280_pressure;Samples;Min_cycle;Max_cycle;Signal;HPM_P1;HPM_P2
2023/03/17 00:04:59;;;;;;;11.82;5.75;;;;;;;3.94;46.59;98125.84;9858584;30;20167;-79
2023/03/17 00:10:24;;;;;;;12.15;6.15;;;;;;;3.92;46.70;98125.66;9859347;30;20548;-79
2023/03/17 00:16:06;;;;;;;9.95;5.85;;;;;;;3.91;46.60;98129.69;9872112;30;20067;-79
2023/03/17 00:21:29;;;;;;;12.95;6.22;;;;;;;3.93;46.71;98127.88;9872644;30;20055;-79
2023/03/17 00:26:50;;;;;;;9.25;5.15;;;;;;;3.95;46.94;98133.59;9858948;30;20422;-79
2023/03/17 00:32:16;;;;;;;12.20;5.70;;;;;;;3.89;46.58;98137.78;9858307;30;20459;-79
2023/03/17 00:37:38;;;;;;;13.10;5.63;;;;;;;3.82;46.57;98124.66;9858467;30;20055;-79
2023/03/17 00:43:04;;;;;;;10.65;5.43;;;;;;;3.72;46.78;98119.59;9847509;30;20514;-79
2023/03/17 00:48:27;;;;;;;10.02;4.88;;;;;;;3.67;46.54;98106.69;9858888;30;20063;-79
2023/03/17 00:53:48;;;;;;;10.63;5.50;;;;;;;3.59;46.87;98089.31;9878137;30;20052;-80
2023/03/17 00:59:28;;;;;;;12.02;5.88;;;;;;;3.51;47.62;98098.81;9876544;30;20411;-80
2023/03/17 01:04:53;;;;;;;10.47;5.33;;;;;;;3.49;47.16;98085.56;9883285;30;20066;-80
2023/03/17 01:10:28;;;;;;;11.18;5.32;;;;;;;3.41;47.57;98077.19;9879829;30;20282;-79
2023/03/17 01:15:50;;;;;;;8.95;4.68;;;;;;;3.37;46.83;98073.28;9899571;30;20055;-79
2023/03/17 01:21:11;;;;;;;10.02;4.68;;;;;;;3.39;47.63;98076.25;9902872;29;20119;-79
2023/03/17 01:26:32;;;;;;;8.57;4.55;;;;;;;3.40;46.93;98063.94;9949426;29;20502;-79
2023/03/17 01:31:53;;;;;;;10.48;5.10;;;;;;;3.40;47.09;98072.22;9926728;29;20062;-79
2023/03/17 01:37:44;;;;;;;7.05;4.22;;;;;;;3.41;46.79;98051.63;9924301;29;20051;-79
2023/03/17 01:43:08;;;;;;;9.27;4.57;;;;;;;3.37;46.23;98046.41;9925574;29;20054;-80
2023/03/17 01:48:30;;;;;;;11.25;4.90;;;;;;;3.33;46.82;98034.25;9951025;29;20055;-79
2023/03/17 01:53:52;;;;;;;9.43;4.93;;;;;;;3.26;46.43;98018.38;9939895;29;20120;-79
2023/03/17 01:59:17;;;;;;;8.77;4.30;;;;;;;3.19;46.46;98013.53;9926321;29;20082;-79
2023/03/17 02:04:39;;;;;;;9.93;5.03;;;;;;;3.14;47.07;97996.56;9938507;29;20058;-79
2023/03/17 02:10:01;;;;;;;8.98;4.65;;;;;;;3.10;47.34;98001.69;9925337;29;20055;-80
2023/03/17 02:15:22;;;;;;;11.68;5.40;;;;;;;3.08;46.83;98012.50;9938446;29;20079;-79
2023/03/17 02:21:39;;;;;;;12.48;5.13;;;;;;;3.10;47.09;98001.69;9923281;29;20059;-79
2023/03/17 02:27:23;;;;;;;7.32;4.47;;;;;;;3.06;47.23;98001.28;9951389;29;20398;-80
2023/03/17 02:32:46;;;;;;;9.85;5.15;;;;;;;3.05;47.29;97988.75;9924866;29;20079;-79
2023/03/17 02:38:08;;;;;;;11.35;4.22;;;;;;;3.03;47.36;97979.56;9925949;29;20054;-79
2023/03/17 02:43:29;;;;;;;8.65;4.35;;;;;;;2.98;47.40;97977.66;9925054;29;20075;-79
2023/03/17 02:48:51;;;;;;;8.27;4.28;;;;;;;2.93;47.45;97979.28;9923853;29;20051;-79
2023/03/17 02:54:12;;;;;;;7.65;4.65;;;;;;;2.85;48.06;97981.97;9911881;29;20055;-80
2023/03/17 02:59:34;;;;;;;10.98;5.38;;;;;;;2.75;48.49;97960.91;9935552;29;20085;-80
2023/03/17 03:04:55;;;;;;;8.93;4.63;;;;;;;2.72;48.79;97964.75;9935993;29;20078;-79
2023/03/17 03:10:18;;;;;;;12.25;5.78;;;;;;;2.68;49.97;97961.56;9935672;29;20058;-79
2023/03/17 03:15:41;;;;;;;11.95;5.85;;;;;;;2.54;50.05;97966.41;9925277;29;20055;-79
2023/03/17 03:21:03;;;;;;;11.88;5.55;;;;;;;2.47;50.38;97965.03;9923278;29;20063;-79
2023/03/17 03:26:24;;;;;;;10.90;5.53;;;;;;;2.46;49.77;97969.06;9936388;29;20058;-79
2023/03/17 03:31:47;;;;;;;14.82;6.30;;;;;;;2.41;50.00;97963.66;9922962;29;20104;-79
2023/03/17 03:37:11;;;;;;;12.07;5.90;;;;;;;2.45;50.30;97967.59;9936158;29;20130;-80
2023/03/17 03:42:32;;;;;;;8.85;5.38;;;;;;;2.42;50.41;97965.91;9935790;29;20059;-80
2023/03/17 03:47:54;;;;;;;12.35;6.50;;;;;;;2.36;50.99;97967.28;9936426;29;20088;-80
2023/03/17 03:53:15;;;;;;;14.93;6.70;;;;;;;2.35;50.75;97969.31;9935283;29;20058;-79
2023/03/17 03:58:40;;;;;;;15.48;7.22;;;;;;;2.30;51.40;97968.16;9923016;29;20063;-80
2023/03/17 04:04:01;;;;;;;;;;;;;;;2.29;51.40;97979.69;9923061;29;20061;-79
2023/03/17 04:09:22;;;;;;;12.55;6.05;;;;;;;2.29;50.95;97979.69;9921906;29;20360;-80
2023/03/17 04:14:46;;;;;;;14.65;6.75;;;;;;;2.21;51.13;97971.34;9898928;29;20059;-80
2023/03/17 04:20:16;;;;;;;13.45;7.00;;;;;;;2.16;51.37;97976.97;9935649;29;20490;-79
2023/03/17 04:25:38;;;;;;;14.20;7.40;;;;;;;2.08;52.12;97978.91;9922480;29;20600;-79
2023/03/17 04:31:00;;;;;;;15.68;7.75;;;;;;;2.07;52.34;97975.41;9933965;29;20065;-80
2023/03/17 04:36:22;;;;;;;13.45;7.07;;;;;;;2.05;52.22;97977.22;9928911;29;20059;-79
2023/03/17 04:41:45;;;;;;;16.75;7.90;;;;;;;2.00;51.51;97974.03;9930498;29;20102;-79
2023/03/17 04:47:06;;;;;;;16.00;7.53;;;;;;;1.96;52.28;97964.63;9928621;29;20058;-79
2023/03/17 04:52:28;;;;;;;13.95;7.78;;;;;;;1.85;53.51;97960.06;9928073;29;20062;-79
2023/03/17 04:57:49;;;;;;;16.80;8.45;;;;;;;1.86;53.15;97966.31;9930122;29;20050;-79
2023/03/17 05:03:11;;;;;;;17.27;7.72;;;;;;;1.98;53.37;97973.81;9930105;29;20054;-79
2023/03/17 05:10:06;;;;;;;14.85;7.38;;;;;;;2.11;53.04;97961.31;9872830;30;20055;-79
2023/03/17 05:15:55;;;;;;;14.50;7.47;;;;;;;2.24;53.13;97970.28;9868238;30;20060;-80
2023/03/17 05:21:16;;;;;;;15.25;7.45;;;;;;;2.33;52.95;97963.59;9874334;30;20131;-78
2023/03/17 05:26:38;;;;;;;14.50;7.13;;;;;;;2.45;53.09;97972.38;10844764;24;20426;-77
2023/03/17 05:31:59;;;;;;;16.40;7.68;;;;;;;2.72;53.04;97978.53;9912347;29;20459;-77
2023/03/17 05:37:21;;;;;;;13.45;6.95;;;;;;;3.13;52.39;97956.47;9909411;29;20051;-77
2023/03/17 05:42:42;;;;;;;20.77;8.05;;;;;;;3.73;52.33;97966.47;9923630;29;20575;-78
2023/03/17 05:48:03;;;;;;;12.95;6.50;;;;;;;4.56;51.30;97951.53;9913203;29;20727;-78
2023/03/17 05:53:24;;;;;;;13.25;7.35;;;;;;;4.63;49.52;97944.53;9920831;29;20495;-78
2023/03/17 05:58:45;;;;;;;11.75;6.93;;;;;;;4.41;50.10;97939.69;9936913;29;20059;-78
2023/03/17 06:04:06;;;;;;;13.02;6.75;;;;;;;4.25;49.71;97944.44;9953526;29;20069;-78
2023/03/17 06:09:27;;;;;;;14.45;7.18;;;;;;;4.32;50.01;97938.91;9974892;29;20513;-78
2023/03/17 06:14:48;;;;;;;14.23;7.00;;;;;;;4.57;50.30;97932.91;9946413;29;20055;-78
2023/03/17 06:20:10;;;;;;;10.75;6.25;;;;;;;4.86;49.37;97944.59;9924415;29;20054;-78
2023/03/17 06:25:33;;;;;;;14.55;7.45;;;;;;;5.38;48.92;97956.94;9950103;29;20055;-78
2023/03/17 06:30:54;;;;;;;13.90;6.90;;;;;;;6.20;49.43;97969.75;9926627;29;20059;-78
2023/03/17 06:36:15;;;;;;;13.95;7.20;;;;;;;7.24;48.55;97978.59;9938753;29;20059;-77
2023/03/17 06:41:36;;;;;;;13.32;8.25;;;;;;;8.93;47.72;97992.19;9936547;29;20130;-78
2023/03/17 06:46:57;;;;;;;13.48;6.85;;;;;;;10.50;44.77;97985.06;9923568;29;20657;-78
2023/03/17 06:52:18;;;;;;;10.68;6.63;;;;;;;12.51;40.33;97979.06;9939454;29;20055;-78
2023/03/17 06:57:39;;;;;;;13.20;7.32;;;;;;;12.13;38.10;97968.94;9923648;29;20055;-78
2023/03/17 07:03:01;;;;;;;17.75;7.65;;;;;;;10.25;38.53;97974.22;9928799;29;20066;-78
2023/03/17 07:08:22;;;;;;;14.07;7.07;;;;;;;9.88;40.18;97985.47;9952620;29;20054;-78
2023/03/17 07:13:44;;;;;;;14.50;7.53;;;;;;;11.20;40.61;97965.50;9990469;29;20062;-78
2023/03/17 07:19:06;;;;;;;15.05;6.60;;;;;;;12.84;37.16;97979.06;9975387;29;20055;-80
2023/03/17 07:24:27;;;;;;;14.05;6.30;;;;;;;14.16;33.28;97971.44;9958870;29;20402;-80
2023/03/17 07:29:47;;;;;;;15.75;5.78;;;;;;;16.10;35.88;97991.66;9958447;29;20100;-77
2023/03/17 07:35:08;;;;;;;10.23;5.35;;;;;;;20.14;27.82;97984.56;9958037;29;20130;-77
2023/03/17 07:40:29;;;;;;;15.27;5.15;;;;;;;23.02;26.94;97987.75;9958221;29;20558;-79
2023/03/17 07:45:51;;;;;;;10.93;4.90;;;;;;;25.28;24.41;97989.69;9935268;29;20062;-79
2023/03/17 07:51:13;;;;;;;13.80;5.90;;;;;;;27.45;15.58;97983.81;9920285;29;20151;-79
2023/03/17 07:56:34;;;;;;;14.18;4.45;;;;;;;30.90;16.72;97975.91;9920156;29;20070;-79
2023/03/17 08:01:56;;;;;;;8.30;4.85;;;;;;;32.31;14.08;97969.13;9932390;29;20796;-78
2023/03/17 08:07:18;;;;;;;10.65;3.90;;;;;;;32.42;12.85;97956.66;9930546;29;20069;-78
2023/03/17 08:12:39;;;;;;;8.60;3.72;;;;;;;33.92;11.26;97966.16;9950152;29;20086;-79
2023/03/17 08:18:00;;;;;;;12.02;4.05;;;;;;;36.16;10.41;97963.16;9957371;29;20135;-80
2023/03/17 08:23:22;;;;;;;7.78;3.60;;;;;;;36.75;8.07;97943.78;9937568;29;20058;-80
2023/03/17 08:28:43;;;;;;;9.75;3.75;;;;;;;36.27;7.06;97946.81;9919294;29;20111;-80
2023/03/17 08:34:04;;;;;;;6.35;3.45;;;;;;;36.60;7.03;97955.19;9934944;29;20089;-80
2023/03/17 08:39:26;;;;;;;6.45;3.10;;;;;;;36.04;6.89;97938.09;9941463;29;20059;-81
2023/03/17 08:44:46;;;;;;;9.75;3.13;;;;;;;35.70;6.81;97977.56;9956552;29;20119;-81
2023/03/17 08:50:13;;;;;;;7.65;3.03;;;;;;;36.21;6.95;97978.97;9969065;29;20115;-80
2023/03/17 08:55:36;;;;;;;5.18;2.60;;;;;;;34.82;6.98;97977.03;9968630;29;20074;-81
2023/03/17 09:01:00;;;;;;;6.88;3.20;;;;;;;35.86;7.14;97953.88;9943850;29;20082;-81
2023/03/17 09:06:21;;;;;;;5.95;2.80;;;;;;;32.67;7.90;97936.03;9942786;29;20088;-81
2023/03/17 09:11:42;;;;;;;6.32;2.72;;;;;;;33.33;7.54;97932.66;9968619;29;20081;-81
2023/03/17 09:17:03;;;;;;;9.77;2.45;;;;;;;33.83;7.92;97917.09;9968590;29;20054;-81
2023/03/17 09:22:25;;;;;;;8.77;2.83;;;;;;;34.92;7.07;97924.63;9962173;29;20501;-81
2023/03/17 09:27:46;;;;;;;6.75;2.85;;;;;;;33.54;7.51;97922.81;9975173;29;20486;-80
2023/03/17 09:33:11;;;;;;;8.68;3.10;;;;;;;32.85;7.47;97923.47;9962353;29;20081;-81
2023/03/17 09:38:32;;;;;;;9.23;2.65;;;;;;;31.70;8.40;97923.78;9974897;29;20089;-81
2023/03/17 09:44:03;;;;;;;5.28;2.92;;;;;;;33.35;8.37;97906.56;9974387;29;20059;-81
2023/03/17 09:49:40;;;;;;;8.15;2.78;;;;;;;35.67;7.32;97889.13;9974536;29;20089;-81
2023/03/17 09:55:04;;;;;;;6.93;3.13;;;;;;;37.91;6.34;97890.06;9950891;29;20070;-81
2023/03/17 10:00:28;;;;;;;4.40;2.03;;;;;;;37.40;5.57;97903.69;9974215;29;20058;-80
2023/03/17 10:05:50;;;;;;;4.95;1.80;;;;;;;36.20;5.54;97891.09;9974018;29;20422;-80
2023/03/17 10:11:22;;;;;;;6.93;1.73;;;;;;;36.65;4.94;97892.50;9961068;29;20062;-82
2023/03/17 10:16:59;;;;;;;3.80;2.20;;;;;;;35.24;5.72;97884.59;9968985;29;20116;-81
2023/03/17 10:22:34;;;;;;;4.90;1.80;;;;;;;33.53;6.50;97878.00;9921965;29;20128;-81
2023/03/17 10:28:01;;;;;;;13.27;2.85;;;;;;;31.43;7.72;97878.00;9898890;29;20063;-81
2023/03/17 10:33:21;;;;;;;3.58;2.22;;;;;;;30.61;8.02;97863.78;9922237;29;20092;-81
2023/03/17 10:38:53;;;;;;;10.43;2.63;;;;;;;33.38;8.04;97853.72;9938107;29;20054;-82
2023/03/17 10:44:41;;;;;;;3.65;2.00;;;;;;;34.14;6.84;97852.72;9947755;29;20156;-81
2023/03/17 10:50:12;;;;;;;4.05;1.73;;;;;;;35.77;6.70;97853.97;9925480;29;20141;-82
2023/03/17 10:55:38;;;;;;;3.97;2.20;;;;;;;35.56;5.72;97848.81;9938183;29;20062;-81
2023/03/17 11:01:06;;;;;;;3.15;2.17;;;;;;;36.04;5.77;97840.06;9932129;29;20141;-79
2023/03/17 11:06:40;;;;;;;6.07;2.65;;;;;;;31.25;7.06;97829.94;9913412;29;20067;-79
2023/03/17 11:12:07;;;;;;;4.50;2.80;;;;;;;25.94;10.35;97823.22;9908629;29;20522;-79
2023/03/17 11:17:46;;;;;;;4.80;2.80;;;;;;;23.05;11.71;97822.00;9917945;29;20232;-79
2023/03/17 11:23:21;;;;;;;5.00;3.00;;;;;;;21.99;14.48;97801.88;9925114;29;20093;-79
2023/03/17 11:28:45;;;;;;;7.55;3.80;;;;;;;21.33;14.20;97796.75;9922432;29;20083;-79
2023/03/17 11:34:26;;;;;;;5.80;3.50;;;;;;;20.47;15.26;97804.97;9899747;29;20593;-79
2023/03/17 11:39:49;;;;;;;6.82;3.63;;;;;;;20.67;15.50;97793.50;9916747;29;20130;-78
2023/03/17 11:45:16;;;;;;;6.78;3.42;;;;;;;20.25;15.85;97779.47;9921559;29;20134;-77
2023/03/17 11:50:38;;;;;;;6.93;4.18;;;;;;;19.33;17.04;97783.59;9925180;29;20142;-78
2023/03/17 11:56:09;;;;;;;6.85;3.75;;;;;;;18.77;17.55;97771.75;9930889;29;20126;-78
2023/03/17 12:01:44;;;;;;;6.38;3.50;;;;;;;19.17;17.60;97764.66;9912000;29;20191;-78
2023/03/17 12:07:26;;;;;;;6.13;3.58;;;;;;;19.10;17.98;97762.28;9922460;29;20125;-79
2023/03/17 12:12:54;;;;;;;7.60;3.70;;;;;;;18.53;18.49;97760.25;9921042;29;20415;-78
2023/03/17 12:18:41;;;;;;;6.10;3.67;;;;;;;18.26;18.77;97755.72;9909754;29;20290;-77
2023/03/17 12:24:16;;;;;;;5.13;3.38;;;;;;;17.78;19.11;97751.75;9902184;29;20134;-80
2023/03/17 12:29:48;;;;;;;7.72;4.32;;;;;;;17.38;20.04;97743.81;9905356;29;20131;-80
2023/03/17 12:35:30;;;;;;;9.03;4.00;;;;;;;17.15;20.08;97744.97;9911219;29;20058;-80
2023/03/17 12:41:00;;;;;;;7.33;4.00;;;;;;;17.27;20.85;97749.66;9903685;29;20085;-79
2023/03/17 12:46:34;;;;;;;7.75;4.28;;;;;;;16.96;20.81;97733.56;9921516;29;20446;-78
2023/03/17 12:51:55;;;;;;;;;;;;;;;16.97;21.37;97729.38;9916085;29;20132;-78
2023/03/17 12:57:21;;;;;;;8.10;4.50;;;;;;;16.94;21.33;97736.31;9930045;29;20003;-78
2023/03/17 13:02:44;;;;;;;7.95;4.05;;;;;;;16.88;21.38;97725.50;9892276;30;20079;-77
2023/03/17 13:08:07;;;;;;;6.53;4.18;;;;;;;16.98;21.26;97722.38;9890517;30;20478;-77
2023/03/17 13:13:44;;;;;;;10.43;4.80;;;;;;;17.03;21.46;97712.72;9903381;30;20067;-78
2023/03/17 13:19:15;;;;;;;9.45;4.47;;;;;;;16.84;21.56;97686.59;9905059;30;20066;-78
2023/03/17 13:24:46;;;;;;;8.23;4.45;;;;;;;16.71;22.42;97681.81;9917913;29;20420;-78
2023/03/17 13:30:24;;;;;;;8.75;4.72;;;;;;;16.59;22.70;97681.25;9905776;30;20059;-78
2023/03/17 13:35:45;;;;;;;9.82;4.57;;;;;;;16.68;22.63;97676.69;9919811;29;20079;-77
2023/03/17 13:41:43;;;;;;;10.35;4.45;;;;;;;16.70;22.96;97663.47;9937145;29;20081;-77
2023/03/17 13:47:16;;;;;;;6.28;4.47;;;;;;;16.19;23.44;97664.03;9951921;29;20055;-77
2023/03/17 13:52:38;;;;;;;6.13;4.50;;;;;;;16.02;23.64;97661.88;9910178;29;20072;-77
2023/03/17 13:58:08;;;;;;;8.05;4.85;;;;;;;15.87;24.02;97651.34;9927846;29;20074;-76
2023/03/17 14:03:46;;;;;;;8.93;5.32;;;;;;;16.07;24.74;97645.88;9958005;29;20082;-79
2023/03/17 14:09:10;;;;;;;8.82;4.13;;;;;;;16.07;24.25;97640.25;9941003;29;20085;-79
2023/03/17 14:14:53;;;;;;;6.75;4.43;;;;;;;15.93;24.37;97641.09;9933517;29;20058;-78
2023/03/17 14:20:14;;;;;;;10.95;5.38;;;;;;;15.67;24.77;97640.63;9945158;29;20050;-77
2023/03/17 14:34:24;;;;;;;11.45;5.35;;;;;;;15.37;25.36;97634.28;9989266;29;20067;-79
2023/03/17 14:55:56;;;;;;;10.68;5.25;;;;;;;14.88;26.76;97603.84;10015496;29;20065;-79
2023/03/17 15:17:35;;;;;;;9.57;4.80;;;;;;;14.50;27.99;97587.91;9952524;29;20054;-77
2023/03/17 15:23:03;;;;;;;8.73;5.00;;;;;;;14.24;28.10;97578.88;9943504;29;20065;-80
2023/03/17 15:37:31;;;;;;;10.57;4.68;;;;;;;13.82;28.79;97575.34;9920048;29;20047;-76
2023/03/17 15:50:50;;;;;;;9.95;4.78;;;;;;;13.22;30.78;97573.56;9928987;29;20106;-79
2023/03/17 15:56:17;;;;;;;8.60;4.65;;;;;;;13.02;30.25;97564.72;9939492;29;20059;-76
2023/03/17 16:01:39;;;;;;;10.00;5.15;;;;;;;12.79;30.84;97571.19;9927305;29;20111;-77
2023/03/17 16:07:29;;;;;;;9.57;5.40;;;;;;;12.64;31.39;97580.09;9934542;29;20055;-76
2023/03/17 16:12:50;;;;;;;9.43;5.03;;;;;;;12.50;31.61;97573.72;9928648;29;20054;-76
2023/03/17 16:18:40;;;;;;;11.18;5.03;;;;;;;12.39;31.73;97578.00;9934056;29;20104;-77
2023/03/17 16:24:01;;;;;;;8.63;5.18;;;;;;;12.28;31.85;97571.09;9926836;29;20102;-76
2023/03/17 16:30:21;;;;;;;10.05;5.03;;;;;;;12.13;32.20;97582.78;9928752;29;20059;-76
2023/03/17 16:35:42;;;;;;;10.67;5.07;;;;;;;11.94;32.48;97580.97;9901587;30;20113;-77
2023/03/17 16:41:08;;;;;;;9.15;4.82;;;;;;;11.90;32.27;97577.97;9888791;30;20284;-78
2023/03/17 16:46:31;;;;;;;11.13;4.90;;;;;;;11.83;32.36;97578.94;9894653;30;20055;-79
2023/03/17 16:51:55;;;;;;;12.98;5.00;;;;;;;11.73;32.44;97586.69;9895450;30;20089;-80
2023/03/17 16:57:16;;;;;;;10.27;5.03;;;;;;;11.56;32.61;97589.81;9907660;30;20093;-79
2023/03/17 17:02:37;;;;;;;10.35;5.20;;;;;;;11.49;32.58;97597.13;9889389;30;20044;-76
2023/03/17 17:08:00;;;;;;;17.90;5.25;;;;;;;11.39;33.17;97605.63;9882860;30;20055;-79
2023/03/17 17:13:20;;;;;;;11.38;5.65;;;;;;;11.35;32.80;97596.22;9921726;30;20056;-77
2023/03/17 17:18:43;;;;;;;15.07;6.40;;;;;;;11.21;33.65;97593.31;9899506;30;20059;-78
2023/03/17 17:24:10;;;;;;;11.30;5.82;;;;;;;11.10;33.84;97605.91;9890326;30;20047;-78
2023/03/17 17:29:30;;;;;;;7.70;4.88;;;;;;;11.06;33.53;97597.25;9900094;30;20507;-78
2023/03/17 17:35:00;;;;;;;9.90;4.97;;;;;;;10.95;33.95;97597.94;9910705;29;20050;-79
2023/03/17 17:40:23;;;;;;;15.43;5.85;;;;;;;10.87;33.72;97598.16;9928504;29;20059;-78
2023/03/17 17:45:47;;;;;;;12.25;5.30;;;;;;;10.79;34.07;97602.50;9932932;29;20062;-77
2023/03/17 17:51:08;;;;;;;9.23;5.07;;;;;;;10.67;34.06;97596.13;9932997;29;20055;-77
2023/03/17 17:56:35;;;;;;;11.63;5.30;;;;;;;10.54;33.97;97594.63;9929738;29;20063;-77
2023/03/17 18:01:59;;;;;;;12.68;5.38;;;;;;;10.44;34.10;97605.13;9933083;29;20091;-77
2023/03/17 18:07:53;;;;;;;12.15;5.78;;;;;;;10.41;34.04;97600.72;9943243;29;20055;-78
2023/03/17 18:13:44;;;;;;;9.80;4.68;;;;;;;10.27;34.47;97597.75;9956916;29;20134;-78
2023/03/17 18:19:06;;;;;;;11.07;5.20;;;;;;;10.20;34.20;97604.22;9930213;29;20138;-78
2023/03/17 18:25:08;;;;;;;11.52;5.20;;;;;;;10.08;34.49;97603.41;9931045;29;20479;-78
2023/03/17 18:30:30;;;;;;;10.57;5.47;;;;;;;9.94;34.53;97603.94;9945765;29;20506;-78
2023/03/17 18:36:30;;;;;;;10.27;5.22;;;;;;;9.77;34.51;97606.19;9938472;29;20062;-79
2023/03/17 18:43:01;;;;;;;11.75;5.72;;;;;;;9.70;34.52;97605.78;9943172;29;20058;-78
2023/03/17 18:49:00;;;;;;;10.88;5.03;;;;;;;9.65;34.40;97604.06;9942076;29;20133;-78
2023/03/17 18:54:56;;;;;;;11.20;5.32;;;;;;;9.63;34.30;97592.00;9940519;29;20059;-77
2023/03/17 19:00:49;;;;;;;10.07;4.88;;;;;;;9.54;34.23;97582.38;9935766;29;20058;-79
2023/03/17 19:06:15;;;;;;;9.45;5.32;;;;;;;9.51;34.26;97591.19;9926819;29;20090;-75
2023/03/17 19:12:06;;;;;;;;;;;;;;;9.44;34.31;97585.19;9931414;29;20134;-76
2023/03/17 19:17:27;;;;;;;9.20;4.78;;;;;;;9.42;34.83;97587.09;9935490;29;20063;-76
2023/03/17 19:22:52;;;;;;;10.65;5.38;;;;;;;9.35;34.41;97580.38;9925795;29;20490;-77
2023/03/17 19:28:13;;;;;;;10.60;5.40;;;;;;;9.26;34.71;97578.34;9923641;29;20145;-76
2023/03/17 19:33:35;;;;;;;10.77;5.45;;;;;;;9.25;34.43;97590.06;9923962;29;20105;-76
2023/03/17 19:39:24;;;;;;;10.25;5.03;;;;;;;9.21;34.74;97593.31;9929970;29;20058;-76
2023/03/17 19:44:46;;;;;;;14.30;6.10;;;;;;;9.11;34.72;97595.41;9923806;29;20456;-76
2023/03/17 19:50:08;;;;;;;10.18;5.20;;;;;;;9.05;34.58;97592.91;9923805;29;20062;-76
2023/03/17 19:55:29;;;;;;;9.27;5.20;;;;;;;8.99;34.64;97588.97;9923057;29;20160;-76
2023/03/17 20:01:20;;;;;;;12.25;5.38;;;;;;;8.95;34.71;97603.31;9930134;29;20058;-77
2023/03/17 20:06:42;;;;;;;13.00;5.00;;;;;;;8.88;34.59;97607.00;9921629;29;20640;-76
2023/03/17 20:12:32;;;;;;;13.88;5.72;;;;;;;8.83;34.73;97605.97;9927606;29;20051;-74
2023/03/17 20:18:00;;;;;;;11.45;5.03;;;;;;;8.77;34.78;97602.00;9921602;29;20062;-75
2023/03/17 20:23:22;;;;;;;9.38;5.15;;;;;;;8.68;34.71;97606.25;9920881;29;20062;-77
2023/03/17 20:37:23;;;;;;;9.40;4.88;;;;;;;8.60;34.45;97608.47;9946019;29;20063;-76
2023/03/17 20:43:13;;;;;;;9.07;4.95;;;;;;;8.59;34.47;97598.66;9929164;29;20058;-76
2023/03/17 20:49:08;;;;;;;9.68;5.38;;;;;;;8.57;34.45;97590.16;9927092;29;20063;-76
2023/03/17 20:54:30;;;;;;;11.35;5.72;;;;;;;8.52;34.98;97593.97;9920986;29;20062;-76
2023/03/17 20:59:51;;;;;;;9.80;6.00;;;;;;;8.53;34.92;97584.31;9932723;29;20059;-76
2023/03/17 21:05:18;;;;;;;15.20;7.72;;;;;;;8.49;35.16;97595.88;9932029;29;20063;-77
2023/03/17 21:10:40;;;;;;;14.50;7.55;;;;;;;8.39;36.12;97586.78;9933522;29;20059;-76
2023/03/17 21:16:01;;;;;;;17.13;7.28;;;;;;;8.30;36.31;97599.34;9922619;29;20055;-76
2023/03/17 21:21:25;;;;;;;17.10;7.82;;;;;;;8.26;36.34;97601.81;9939649;29;20083;-76
2023/03/17 21:26:46;;;;;;;;;;;;;;;8.20;36.59;97597.84;9927764;29;20082;-76
2023/03/17 21:32:07;;;;;;;15.05;6.93;;;;;;;8.10;36.63;97588.75;9919379;29;19978;-76
2023/03/17 21:37:29;;;;;;;14.73;7.53;;;;;;;7.91;37.28;97587.41;9908273;29;20128;-76
2023/03/17 21:42:56;;;;;;;19.30;7.90;;;;;;;7.79;37.49;97578.16;9929955;29;20051;-76
2023/03/17 21:48:24;;;;;;;16.45;8.13;;;;;;;7.80;37.84;97581.66;9900649;29;20071;-76
2023/03/17 21:53:46;;;;;;;14.75;7.15;;;;;;;7.69;37.63;97594.78;9913300;30;20059;-76
2023/03/17 21:59:09;;;;;;;15.98;8.15;;;;;;;7.68;38.46;97601.66;9901265;29;20059;-76
2023/03/17 22:04:33;;;;;;;16.30;7.35;;;;;;;7.62;38.73;97603.22;9900470;30;20066;-76
2023/03/17 22:09:56;;;;;;;13.05;7.30;;;;;;;7.55;38.25;97599.28;9900320;29;20082;-76
2023/03/17 22:15:18;;;;;;;11.82;6.93;;;;;;;7.50;38.43;97605.81;9887145;30;20124;-76
2023/03/17 22:20:41;;;;;;;13.85;7.90;;;;;;;7.46;38.34;97608.28;9917354;29;20061;-76
2023/03/17 22:26:12;;;;;;;12.73;6.25;;;;;;;7.46;38.42;97605.50;9923979;29;20059;-76
2023/03/17 22:31:34;;;;;;;12.68;6.47;;;;;;;7.38;38.50;97611.16;9924213;29;20062;-76
2023/03/17 22:36:57;;;;;;;13.73;6.72;;;;;;;7.34;39.04;97601.81;9925694;29;20521;-76
2023/03/17 22:42:18;;;;;;;12.57;6.63;;;;;;;7.37;38.74;97609.72;9973369;29;20058;-76
2023/03/17 22:47:39;;;;;;;15.38;6.82;;;;;;;7.37;39.19;97612.47;9970015;29;20051;-76
2023/03/17 22:53:11;;;;;;;16.25;6.50;;;;;;;7.38;38.75;97602.09;9925225;29;20457;-77
2023/03/17 22:58:32;;;;;;;11.95;7.13;;;;;;;7.40;39.10;97605.03;9923264;29;20082;-77
2023/03/17 23:04:26;;;;;;;14.57;6.10;;;;;;;7.35;39.65;97600.50;9926686;29;20494;-76
2023/03/17 23:09:48;;;;;;;16.97;6.53;;;;;;;7.34;39.46;97601.81;9926511;29;20069;-77
2023/03/17 23:15:37;;;;;;;14.18;6.72;;;;;;;7.30;39.25;97595.94;9917216;29;20304;-77
2023/03/17 23:21:10;;;;;;;11.45;5.88;;;;;;;7.25;39.81;97594.16;9935774;29;20074;-77
2023/03/17 23:26:40;;;;;;;14.68;6.30;;;;;;;7.16;39.77;97593.53;9897403;29;20567;-77
2023/03/17 23:32:36;;;;;;;15.27;6.47;;;;;;;7.07;39.96;97591.41;9900333;29;20050;-77
2023/03/17 23:38:28;;;;;;;14.40;6.28;;;;;;;6.99;39.72;97599.09;9928467;29;20176;-77
2023/03/17 23:44:21;;;;;;;17.30;7.53;;;;;;;6.95;40.02;97603.59;9938557;29;20055;-76
2023/03/17 23:50:15;;;;;;;15.35;6.93;;;;;;;6.92;40.10;97604.75;9922740;29;20051;-77
2023/03/17 23:55:38;;;;;;;12.35;6.22;;;;;;;6.82;39.77;97607.44;9934971;29;20055;-77
